createdAt,value
2018-11-06T00:03:52.774Z,8.38
2018-11-06T00:08:56.405Z,8.44
2018-11-06T00:14:00.007Z,8.41
2018-11-06T00:19:03.548Z,8.36
2018-11-06T00:24:07.411Z,8.32
2018-11-06T00:29:12.867Z,8.22
2018-11-06T00:34:16.845Z,8.02
2018-11-06T00:39:20.575Z,8.04
2018-11-06T00:44:24.142Z,7.92
2018-11-06T00:49:27.657Z,7.68
2018-11-06T00:54:31.300Z,7.56
2018-11-06T00:59:34.939Z,7.61
2018-11-06T01:04:38.657Z,7.59
2018-11-06T01:09:42.144Z,7.28
2018-11-06T01:14:45.795Z,7.17
2018-11-06T01:19:49.373Z,7.22
2018-11-06T01:24:52.977Z,7.09
2018-11-06T01:29:56.513Z,6.95
2018-11-06T01:35:00.156Z,6.79
2018-11-06T01:40:03.731Z,6.73
2018-11-06T01:45:09.703Z,6.84
2018-11-06T01:50:15.273Z,6.95
2018-11-06T01:55:18.854Z,6.99
2018-11-06T02:00:33.267Z,6.79
2018-11-06T02:05:37.151Z,6.86
2018-11-06T02:10:40.725Z,6.83
2018-11-06T02:15:44.344Z,6.64
2018-11-06T02:20:50.655Z,6.61
2018-11-06T02:25:54.362Z,6.67
2018-11-06T02:30:57.921Z,6.65
2018-11-06T02:36:01.446Z,6.68
2018-11-06T02:41:05.543Z,6.44
2018-11-06T02:46:09.280Z,6.39
2018-11-06T02:51:12.971Z,6.45
2018-11-06T02:56:17.012Z,6.54
2018-11-06T03:01:20.564Z,6.33
2018-11-06T03:06:24.103Z,6.07
2018-11-06T03:11:27.638Z,6.01
2018-11-06T03:16:31.213Z,5.96
2018-11-06T03:21:35.206Z,6.18
2018-11-06T03:26:38.754Z,6.53
2018-11-06T03:31:42.370Z,6.72
2018-11-06T03:36:45.917Z,6.65
2018-11-06T03:41:49.680Z,6.74
2018-11-06T03:46:53.258Z,6.80
2018-11-06T03:51:56.882Z,6.79
2018-11-06T03:57:09.141Z,6.59
2018-11-06T04:02:12.702Z,6.70
2018-11-06T04:07:16.315Z,6.65
2018-11-06T04:12:19.937Z,6.57
2018-11-06T04:17:23.373Z,6.68
2018-11-06T04:22:26.988Z,6.74
2018-11-06T04:27:30.508Z,6.79
2018-11-06T04:32:34.120Z,6.71
2018-11-06T04:37:38.558Z,6.69
2018-11-06T04:42:42.463Z,6.69
2018-11-06T04:47:49.430Z,6.69
2018-11-06T04:52:53.097Z,6.61
2018-11-06T04:57:56.701Z,6.42
2018-11-06T05:03:00.300Z,6.43
2018-11-06T05:08:03.759Z,6.55
2018-11-06T05:13:07.401Z,6.59
2018-11-06T05:18:10.911Z,6.54
2018-11-06T05:23:14.509Z,6.37
2018-11-06T05:28:18.127Z,6.36
2018-11-06T05:33:30.362Z,6.37
2018-11-06T05:38:33.812Z,6.36
2018-11-06T05:43:38.383Z,6.36
2018-11-06T05:48:41.930Z,6.31
2018-11-06T05:53:45.606Z,6.01
2018-11-06T05:58:49.453Z,5.81
2018-11-06T06:03:53.568Z,5.86
2018-11-06T06:08:57.196Z,6.08
2018-11-06T06:14:00.903Z,5.83
2018-11-06T06:19:07.038Z,6.09
2018-11-06T06:24:10.716Z,6.23
2018-11-06T06:29:14.405Z,6.14
2018-11-06T06:34:18.430Z,5.86
2018-11-06T06:39:25.433Z,5.87
2018-11-06T06:44:29.122Z,5.83
2018-11-06T06:49:32.727Z,6.06
2018-11-06T06:54:36.833Z,6.37
2018-11-06T06:59:40.221Z,6.67
2018-11-06T07:04:43.687Z,6.77
2018-11-06T07:09:47.237Z,6.77
2018-11-06T07:14:50.765Z,6.77
2018-11-06T07:19:54.374Z,6.56
2018-11-06T07:24:57.824Z,6.61
2018-11-06T07:30:01.621Z,6.80
2018-11-06T07:35:06.476Z,7.11
2018-11-06T07:40:11.789Z,7.05
2018-11-06T07:45:16.867Z,7.20
2018-11-06T07:50:20.639Z,7.38
2018-11-06T07:55:24.161Z,7.61
2018-11-06T08:00:27.819Z,7.97
2018-11-06T08:05:31.413Z,8.32
2018-11-06T08:10:35.086Z,8.63
2018-11-06T08:15:38.796Z,8.78
2018-11-06T08:20:42.480Z,8.91
2018-11-06T08:25:45.919Z,9.16
2018-11-06T08:30:49.677Z,9.55
2018-11-06T08:35:53.005Z,10.05
2018-11-06T08:40:56.639Z,9.92
2018-11-06T08:46:00.133Z,9.75
2018-11-06T08:51:05.043Z,9.75
2018-11-06T08:56:08.726Z,9.97
2018-11-06T09:01:12.737Z,10.05
2018-11-06T09:06:16.248Z,10.32
2018-11-06T09:11:19.809Z,10.50
2018-11-06T09:16:23.413Z,10.82
2018-11-06T09:21:27.137Z,11.05
2018-11-06T09:26:30.728Z,11.35
2018-11-06T09:31:34.843Z,11.64
2018-11-06T09:36:39.049Z,11.83
2018-11-06T09:41:42.759Z,12.05
2018-11-06T09:46:46.287Z,12.27
2018-11-06T09:51:49.962Z,12.36
2018-11-06T09:56:53.546Z,12.48
2018-11-06T10:01:57.222Z,12.71
2018-11-06T10:07:01.151Z,12.85
2018-11-06T10:12:04.355Z,13.07
2018-11-06T10:17:07.998Z,13.54
2018-11-06T10:22:11.742Z,13.82
2018-11-06T10:27:15.334Z,14.05
2018-11-06T10:32:18.942Z,14.46
2018-11-06T10:37:22.543Z,14.91
2018-11-06T10:42:26.081Z,15.28
2018-11-06T10:47:29.684Z,15.45
2018-11-06T10:52:33.566Z,15.69
2018-11-06T10:57:38.828Z,15.76
2018-11-06T11:02:47.838Z,15.73
2018-11-06T11:07:51.548Z,15.75
2018-11-06T11:12:55.348Z,15.77
2018-11-06T11:17:59.147Z,15.81
2018-11-06T11:23:02.813Z,15.92
2018-11-06T11:28:06.397Z,16.18
2018-11-06T11:33:09.941Z,16.34
2018-11-06T11:38:13.520Z,16.46
2018-11-06T11:43:17.127Z,16.46
2018-11-06T11:48:20.654Z,16.49
2018-11-06T11:53:24.294Z,16.60
2018-11-06T11:58:27.866Z,16.61
2018-11-06T12:03:31.525Z,16.83
2018-11-06T12:08:35.087Z,17.04
2018-11-06T12:13:38.756Z,17.15
2018-11-06T12:18:42.450Z,17.21
2018-11-06T12:23:46.066Z,17.26
2018-11-06T12:28:49.656Z,17.25
2018-11-06T12:33:53.249Z,17.32
2018-11-06T12:38:56.805Z,17.36
2018-11-06T12:44:00.444Z,17.45
2018-11-06T12:49:04.070Z,17.37
2018-11-06T12:54:07.859Z,17.35
2018-11-06T12:59:11.407Z,17.40
2018-11-06T13:04:15.094Z,17.35
2018-11-06T13:09:18.924Z,17.40
2018-11-06T13:14:22.497Z,17.36
2018-11-06T13:19:26.069Z,17.39
2018-11-06T13:24:29.617Z,17.41
2018-11-06T13:29:33.205Z,17.44
2018-11-06T13:34:36.915Z,17.50
2018-11-06T13:39:40.389Z,17.55
2018-11-06T13:44:44.302Z,17.46
2018-11-06T13:49:47.481Z,17.46
2018-11-06T13:54:51.078Z,17.40
2018-11-06T13:59:54.635Z,17.23
2018-11-06T14:04:58.254Z,17.05
2018-11-06T14:10:02.029Z,16.79
2018-11-06T14:15:05.776Z,16.66
2018-11-06T14:20:11.591Z,16.52
2018-11-06T14:25:15.219Z,16.34
2018-11-06T14:30:25.003Z,16.21
2018-11-06T14:35:28.595Z,16.02
2018-11-06T14:40:32.447Z,15.85
2018-11-06T14:45:36.106Z,15.75
2018-11-06T14:50:39.566Z,15.57
2018-11-06T14:55:43.199Z,15.39
2018-11-06T15:00:46.812Z,15.30
2018-11-06T15:05:50.657Z,15.17
2018-11-06T15:10:54.207Z,15.04
2018-11-06T15:15:57.826Z,14.87
2018-11-06T15:21:01.451Z,14.74
2018-11-06T15:26:04.890Z,14.56
2018-11-06T15:31:08.467Z,14.33
2018-11-06T15:36:12.226Z,14.08
2018-11-06T15:41:15.928Z,13.96
2018-11-06T15:46:19.447Z,13.79
2018-11-06T15:51:23.151Z,13.64
2018-11-06T15:56:26.703Z,13.55
2018-11-06T16:01:30.336Z,13.40
2018-11-06T16:06:33.915Z,13.28
2018-11-06T16:11:37.386Z,13.08
2018-11-06T16:16:40.991Z,12.96
2018-11-06T16:21:44.682Z,12.75
2018-11-06T16:26:48.293Z,12.55
2018-11-06T16:31:51.886Z,12.38
2018-11-06T16:36:55.561Z,12.29
2018-11-06T16:41:59.061Z,12.30
2018-11-06T16:47:02.641Z,12.30
2018-11-06T16:52:06.360Z,12.36
2018-11-06T16:57:10.015Z,12.43
2018-11-06T17:02:13.653Z,12.42
2018-11-06T17:07:17.177Z,12.41
2018-11-06T17:12:20.754Z,12.40
2018-11-06T17:17:24.259Z,12.40
2018-11-06T17:22:27.867Z,12.30
2018-11-06T17:27:31.479Z,12.23
2018-11-06T17:32:35.186Z,12.12
2018-11-06T17:37:39.421Z,12.05
2018-11-06T17:42:43.610Z,11.96
2018-11-06T17:47:47.206Z,11.91
2018-11-06T17:52:50.802Z,11.93
2018-11-06T17:57:54.394Z,11.83
2018-11-06T18:02:58.399Z,11.77
2018-11-06T18:08:01.984Z,11.74
2018-11-06T18:13:06.011Z,11.72
2018-11-06T18:18:09.823Z,11.71
2018-11-06T18:23:13.804Z,11.78
2018-11-06T18:28:17.318Z,11.91
2018-11-06T18:33:20.924Z,11.91
2018-11-06T18:38:24.685Z,11.90
2018-11-06T18:43:28.177Z,11.81
2018-11-06T18:48:31.855Z,11.72
2018-11-06T18:53:35.507Z,11.67
2018-11-06T18:58:39.170Z,11.66
2018-11-06T19:03:49.822Z,11.64
2018-11-06T19:08:53.533Z,11.63
2018-11-06T19:13:57.510Z,11.62
2018-11-06T19:19:01.219Z,11.64
2018-11-06T19:24:08.940Z,11.64
2018-11-06T19:29:12.511Z,11.50
2018-11-06T19:34:23.966Z,11.45
2018-11-06T19:39:27.651Z,11.26
2018-11-06T19:44:31.290Z,11.12
2018-11-06T19:49:39.894Z,11.00
2018-11-06T19:54:43.591Z,11.10
2018-11-06T19:59:47.128Z,11.05
2018-11-06T20:04:50.989Z,11.02
2018-11-06T20:09:54.577Z,10.96
2018-11-06T20:14:58.228Z,10.93
2018-11-06T20:20:02.090Z,10.83
2018-11-06T20:25:05.855Z,10.70
2018-11-06T20:30:15.123Z,10.35
2018-11-06T20:35:21.107Z,10.34
2018-11-06T20:40:26.387Z,10.23
2018-11-06T20:45:30.140Z,10.08
2018-11-06T20:50:33.645Z,10.00
2018-11-06T20:55:37.354Z,9.81
2018-11-06T21:00:41.005Z,9.78
2018-11-06T21:05:44.710Z,9.75
2018-11-06T21:10:49.021Z,9.57
2018-11-06T21:15:53.065Z,9.42
2018-11-06T21:20:58.008Z,9.12
2018-11-06T21:26:03.439Z,9.04
2018-11-06T21:31:08.163Z,9.12
2018-11-06T21:36:11.858Z,9.27
2018-11-06T21:41:15.577Z,9.30
2018-11-06T21:46:19.397Z,9.23
2018-11-06T21:51:23.038Z,9.15
2018-11-06T21:56:26.772Z,9.06
2018-11-06T22:01:30.439Z,8.89
2018-11-06T22:06:35.057Z,8.83
2018-11-06T22:11:38.561Z,8.90
2018-11-06T22:16:42.325Z,8.83
2018-11-06T22:21:46.038Z,8.78
2018-11-06T22:26:49.713Z,8.76
2018-11-06T22:31:53.740Z,8.56
2018-11-06T22:36:57.435Z,8.59
2018-11-06T22:42:01.055Z,8.68
2018-11-06T22:47:05.153Z,8.76
2018-11-06T22:52:08.827Z,8.77
2018-11-06T22:57:12.591Z,8.79
2018-11-06T23:02:16.290Z,9.01
2018-11-06T23:07:25.197Z,9.08
2018-11-06T23:12:31.880Z,9.17
2018-11-06T23:17:36.897Z,9.26
2018-11-06T23:22:41.986Z,9.37
2018-11-06T23:27:47.353Z,9.47
2018-11-06T23:32:53.193Z,9.63
2018-11-06T23:37:58.626Z,9.71
2018-11-06T23:43:03.634Z,9.60
2018-11-06T23:48:08.704Z,9.50
2018-11-06T23:53:13.724Z,9.44
2018-11-06T23:58:17.392Z,9.48
